Time;durP1;ratioP1;P1;durP2;ratioP2;P2;SDS_P1;SDS_P2;PMS_P1;PMS_P2;Temp;Humidity;BMP_temperature;BMP_pressure;BME280_temperature;BME280_humidity;BME280_pressure;Samples;Min_cycle;Max_cycle;Signal;HPM_P1;HPM_P2
2022/01/19 00:02:20;;;;;;;16.10;5.07;;;;;;;8.89;81.40;102779.63;7390089;19;20503;-67
2022/01/19 00:04:51;;;;;;;19.23;4.93;;;;;;;8.91;81.70;102778.63;7388195;19;20089;-68
2022/01/19 00:07:59;;;;;;;14.45;4.65;;;;;;;8.91;80.49;102773.38;7392906;19;20025;-67
2022/01/19 00:10:54;;;;;;;12.40;3.97;;;;;;;8.92;80.28;102763.72;7389825;19;20019;-68
2022/01/19 00:13:33;;;;;;;16.08;4.13;;;;;;;8.94;80.44;102767.06;7392624;19;20018;-68
2022/01/19 00:16:05;;;;;;;14.90;4.07;;;;;;;8.94;80.34;102767.91;7389614;19;20070;-68
2022/01/19 00:18:41;;;;;;;15.05;5.05;;;;;;;8.93;79.46;102784.63;7391557;19;20364;-68
2022/01/19 00:21:15;;;;;;;15.05;5.88;;;;;;;8.97;80.69;102780.03;7393394;19;20007;-68
2022/01/19 00:23:54;;;;;;;12.88;4.40;;;;;;;8.97;80.07;102780.88;7389763;19;20062;-67
2022/01/19 00:26:36;;;;;;;16.88;5.40;;;;;;;9.01;81.18;102786.78;7389049;19;20010;-67
2022/01/19 00:29:06;;;;;;;16.92;5.85;;;;;;;9.04;81.93;102793.63;7392355;19;20010;-69
2022/01/19 00:32:06;;;;;;;12.43;5.40;;;;;;;9.01;81.24;102790.25;7392564;19;20090;-67
2022/01/19 00:34:49;;;;;;;17.20;4.93;;;;;;;9.01;81.59;102781.53;7388729;19;20033;-68
2022/01/19 00:37:24;;;;;;;17.73;5.50;;;;;;;9.00;81.27;102764.06;7387413;19;20015;-68
2022/01/19 00:40:00;;;;;;;28.52;11.52;;;;;;;9.07;82.66;102751.44;7387703;19;20044;-67
2022/01/19 00:42:32;;;;;;;23.38;7.32;;;;;;;9.11;82.70;102739.78;7386928;19;20010;-67
2022/01/19 00:45:05;;;;;;;14.60;4.88;;;;;;;9.08;80.14;102727.72;7390876;19;20038;-68
2022/01/19 00:47:35;;;;;;;14.70;4.20;;;;;;;9.05;80.12;102727.03;7389625;19;20022;-67
2022/01/19 00:50:11;;;;;;;17.63;5.95;;;;;;;9.04;80.12;102725.38;7387320;19;20007;-67
2022/01/19 00:52:43;;;;;;;13.73;4.55;;;;;;;9.04;81.08;102712.25;7390703;19;20122;-70
2022/01/19 00:59:00;;;;;;;14.90;4.47;;;;;;;9.06;81.55;102705.94;7387925;19;20342;-66
2022/01/19 01:01:33;;;;;;;15.15;6.43;;;;;;;9.05;80.70;102713.91;7394822;19;20026;-66
2022/01/19 01:04:07;;;;;;;18.10;7.97;;;;;;;9.02;81.35;102713.19;7396512;19;20316;-68
2022/01/19 01:06:39;;;;;;;11.60;3.42;;;;;;;9.01;80.52;102716.75;7399656;19;20317;-69
2022/01/19 01:09:09;;;;;;;18.65;5.28;;;;;;;8.97;79.49;102711.78;7395649;19;20031;-67
2022/01/19 01:20:39;;;;;;;19.45;9.25;;;;;;;9.06;82.40;102710.34;7398091;19;20015;-67
2022/01/19 01:23:12;;;;;;;15.45;5.18;;;;;;;9.04;81.02;102709.63;7395476;19;20014;-66
2022/01/19 01:25:42;;;;;;;;;;;;;;;9.04;80.17;102707.81;7393898;19;20524;-68
2022/01/19 01:28:08;;;;;;;16.40;4.57;;;;;;;9.00;80.16;102703.69;7396928;19;19986;-67
2022/01/19 01:30:36;;;;;;;16.38;4.70;;;;;;;8.98;79.53;102701.19;7394856;19;20003;-68
2022/01/19 01:33:03;;;;;;;17.70;4.70;;;;;;;8.96;79.81;102682.06;7394513;19;20079;-67
2022/01/19 01:35:30;;;;;;;21.40;5.90;;;;;;;8.99;79.59;102670.50;7395597;19;20397;-67
2022/01/19 01:38:02;;;;;;;14.82;5.05;;;;;;;8.96;79.64;102663.69;7395698;19;20350;-68
2022/01/19 01:40:36;;;;;;;14.18;5.00;;;;;;;8.96;79.70;102663.69;7392980;19;20086;-66
2022/01/19 01:43:11;;;;;;;22.42;5.07;;;;;;;8.95;79.84;102661.97;7394389;19;20448;-67
2022/01/19 01:45:45;;;;;;;14.07;4.15;;;;;;;8.94;79.49;102670.78;7394916;19;20038;-67
2022/01/19 01:48:20;;;;;;;16.58;5.05;;;;;;;8.93;79.88;102668.28;7394485;19;20018;-68
2022/01/19 01:53:34;;;;;;;15.18;4.38;;;;;;;8.91;80.16;102678.88;7398172;19;20020;-66
2022/01/19 01:56:09;;;;;;;29.33;9.38;;;;;;;8.91;80.70;102678.88;7394143;19;20124;-67
2022/01/19 01:58:43;;;;;;;14.05;5.38;;;;;;;8.91;81.29;102681.50;7394505;19;20010;-66
2022/01/19 02:01:10;;;;;;;16.10;5.10;;;;;;;8.92;80.74;102674.47;7396218;19;20023;-67
2022/01/19 02:03:42;;;;;;;24.58;5.75;;;;;;;8.92;81.07;102664.81;7396617;19;20025;-68
2022/01/19 02:26:08;;;;;;;33.97;10.90;;;;;;;8.84;82.28;102608.47;7393481;19;20070;-67
2022/01/19 02:42:40;;;;;;;19.25;8.82;;;;;;;8.84;83.81;102561.22;7395695;19;20077;-67
2022/01/19 02:50:27;;;;;;;25.83;10.65;;;;;;;8.82;83.38;102540.34;7393893;19;20011;-66
2022/01/19 02:52:54;;;;;;;18.88;7.80;;;;;;;8.87;84.09;102534.81;7393613;19;20031;-66
2022/01/19 02:55:22;;;;;;;23.92;6.07;;;;;;;8.88;84.24;102539.97;7392164;19;20074;-67
2022/01/19 02:57:50;;;;;;;29.23;9.82;;;;;;;8.87;83.03;102526.94;7394977;19;20018;-67
2022/01/19 03:08:43;;;;;;;16.55;6.15;;;;;;;8.86;82.22;102523.47;7388811;19;20010;-68
2022/01/19 03:09:21;;;;;;;40.03;13.57;;;;;;;8.83;82.93;102507.09;7397129;19;20102;-67
2022/01/19 03:11:57;;;;;;;25.27;9.07;;;;;;;8.83;85.04;102510.56;7392484;19;20413;-67
2022/01/19 03:14:29;;;;;;;27.13;9.65;;;;;;;8.82;84.23;102501.00;7392547;19;20420;-66
2022/01/19 03:16:58;;;;;;;26.15;11.48;;;;;;;8.82;85.20;102498.38;7391826;19;20018;-66
2022/01/19 03:19:28;;;;;;;35.85;11.90;;;;;;;8.84;85.79;102500.88;7393007;19;20506;-67
2022/01/19 03:21:57;;;;;;;21.13;8.75;;;;;;;8.85;86.20;102505.19;7395241;19;20014;-67
2022/01/19 03:24:26;;;;;;;43.60;14.65;;;;;;;8.83;86.55;102502.69;7390485;19;20017;-67
2022/01/19 03:26:53;;;;;;;25.27;7.63;;;;;;;8.83;86.40;102502.69;7390441;19;20030;-68
2022/01/19 03:29:20;;;;;;;21.25;8.57;;;;;;;8.80;84.55;102502.00;7395433;19;20014;-68
2022/01/19 03:31:47;;;;;;;19.55;7.05;;;;;;;8.80;83.62;102497.59;7392271;19;20022;-67
2022/01/19 03:34:16;;;;;;;21.58;6.85;;;;;;;8.77;83.43;102489.94;7392675;19;20010;-66
2022/01/19 03:36:42;;;;;;;30.58;10.40;;;;;;;8.74;83.39;102487.50;7387695;19;20022;-66
2022/01/19 03:39:09;;;;;;;25.90;10.05;;;;;;;8.73;83.90;102483.22;7395284;19;20014;-67
2022/01/19 03:41:36;;;;;;;26.65;8.48;;;;;;;8.74;84.90;102474.38;7391981;19;20017;-68
2022/01/19 03:44:03;;;;;;;31.70;10.85;;;;;;;8.76;85.70;102472.50;7394089;19;20421;-68
2022/01/19 03:46:42;;;;;;;27.58;8.88;;;;;;;8.78;86.04;102475.06;7391884;19;20012;-67
2022/01/19 03:49:12;;;;;;;23.30;8.95;;;;;;;8.68;84.09;102466.94;7392542;19;20023;-66
2022/01/19 03:51:39;;;;;;;31.67;12.15;;;;;;;8.65;84.14;102461.88;7394063;19;20010;-66
2022/01/19 03:54:06;;;;;;;24.88;7.50;;;;;;;8.62;83.73;102456.84;7394976;19;20025;-67
2022/01/19 03:56:32;;;;;;;21.90;7.53;;;;;;;8.59;83.20;102452.63;7391094;19;20010;-66
2022/01/19 03:59:13;;;;;;;23.65;7.85;;;;;;;8.58;84.06;102453.56;7391433;19;20512;-66
2022/01/19 04:01:47;;;;;;;20.40;6.43;;;;;;;8.58;83.50;102447.50;7391313;19;20023;-68
2022/01/19 04:07:09;;;;;;;21.23;7.68;;;;;;;8.65;85.51;102443.50;7390490;19;20022;-68
2022/01/19 04:10:05;;;;;;;27.55;10.02;;;;;;;8.68;85.68;102448.56;7392348;19;20031;-68
2022/01/19 04:13:09;;;;;;;25.50;9.50;;;;;;;8.61;84.28;102449.06;7390081;19;20089;-68
2022/01/19 04:15:56;;;;;;;18.65;7.22;;;;;;;8.58;83.51;102444.88;7391159;19;20015;-67
2022/01/19 04:18:29;;;;;;;19.95;7.07;;;;;;;8.57;83.19;102453.66;7392835;19;20058;-69
2022/01/19 04:21:01;;;;;;;18.92;7.88;;;;;;;8.58;83.50;102444.88;7392807;19;20417;-69
2022/01/19 04:23:44;;;;;;;22.35;7.50;;;;;;;8.57;83.75;102435.31;7389334;19;20007;-67
2022/01/19 04:26:11;;;;;;;19.90;7.20;;;;;;;8.57;84.03;102432.69;7387579;19;20009;-67
2022/01/19 04:29:16;;;;;;;19.95;7.50;;;;;;;8.59;83.21;102426.38;7391690;19;20007;-65
2022/01/19 04:31:48;;;;;;;17.98;7.30;;;;;;;8.58;83.17;102422.06;7392144;19;20669;-67
2022/01/19 04:34:24;;;;;;;16.23;6.75;;;;;;;8.58;83.46;102421.25;7388916;19;20013;-67
2022/01/19 05:03:54;;;;;;;22.15;7.32;;;;;;;8.46;85.01;102403.69;7396345;19;20010;-66
2022/01/19 05:06:22;;;;;;;17.20;6.07;;;;;;;8.48;85.66;102401.81;7397308;19;20338;-66
2022/01/19 05:09:06;;;;;;;15.23;5.03;;;;;;;8.47;84.21;102398.34;7395784;19;20011;-67
2022/01/19 05:14:21;;;;;;;13.40;5.32;;;;;;;8.56;84.01;102387.25;7396257;19;20388;-66
2022/01/19 05:16:50;;;;;;;18.77;7.35;;;;;;;8.56;83.65;102379.38;7396166;19;20380;-68
2022/01/19 05:19:20;;;;;;;17.35;7.07;;;;;;;8.61;84.48;102376.44;7395243;19;20458;-67
2022/01/19 05:21:47;;;;;;;32.33;12.90;;;;;;;8.64;84.49;102372.75;7395490;19;20018;-65
2022/01/19 05:24:14;;;;;;;16.58;5.95;;;;;;;8.65;84.38;102362.16;7395418;19;20074;-68
2022/01/19 05:26:42;;;;;;;15.25;5.40;;;;;;;8.64;83.78;102370.97;7394064;19;20010;-67
2022/01/19 05:29:09;;;;;;;12.23;4.57;;;;;;;8.62;83.37;102359.78;7396968;19;20458;-66
2022/01/19 05:31:36;;;;;;;15.32;4.70;;;;;;;8.63;82.73;102366.69;7394916;19;20338;-68
2022/01/19 05:34:03;;;;;;;23.20;8.18;;;;;;;8.63;82.29;102358.84;7396724;19;20018;-67
2022/01/19 05:36:30;;;;;;;14.82;4.75;;;;;;;8.66;83.98;102356.00;7397881;19;20019;-67
2022/01/19 05:38:57;;;;;;;10.85;3.92;;;;;;;8.69;82.93;102353.16;7394897;19;20006;-67
2022/01/19 05:41:24;;;;;;;9.85;3.83;;;;;;;8.67;82.00;102351.59;7396285;19;20010;-67
2022/01/19 05:43:51;;;;;;;17.33;4.78;;;;;;;8.67;82.04;102344.56;7392956;19;20070;-66
2022/01/19 05:46:28;;;;;;;14.73;5.53;;;;;;;8.68;81.73;102335.75;7392150;19;20014;-67
2022/01/19 05:49:01;;;;;;;14.98;4.20;;;;;;;8.72;82.18;102334.59;7392583;19;20013;-67
2022/01/19 05:51:32;;;;;;;15.98;4.93;;;;;;;8.73;82.75;102330.19;7396384;19;20017;-67
2022/01/19 05:54:08;;;;;;;15.05;7.20;;;;;;;8.77;83.48;102313.28;7394456;19;20021;-67
2022/01/19 05:56:37;;;;;;;9.48;3.22;;;;;;;8.79;83.44;102319.25;7396385;19;20015;-68
2022/01/19 05:59:05;;;;;;;12.48;3.25;;;;;;;8.77;81.30;102310.66;7392262;19;20013;-68
2022/01/19 06:01:32;;;;;;;13.85;5.45;;;;;;;8.75;81.52;102317.78;7392403;19;20007;-66
2022/01/19 06:03:59;;;;;;;22.33;8.13;;;;;;;8.76;82.98;102306.34;7394236;19;20774;-66
2022/01/19 06:06:26;;;;;;;12.98;3.47;;;;;;;8.76;83.76;102303.72;7396780;19;20586;-66
2022/01/19 06:09:01;;;;;;;12.43;3.38;;;;;;;8.70;82.52;102315.47;7393806;19;20007;-66
2022/01/19 06:11:28;;;;;;;15.30;5.65;;;;;;;8.74;83.29;102313.47;7394909;19;20022;-67
2022/01/19 06:13:55;;;;;;;10.23;3.55;;;;;;;8.71;82.62;102311.91;7393823;19;20374;-68
2022/01/19 06:16:22;;;;;;;19.52;6.30;;;;;;;8.73;83.45;102307.41;7392803;19;20092;-66
2022/01/19 06:18:49;;;;;;;10.05;2.75;;;;;;;8.76;83.10;102303.72;7394902;19;20070;-67
2022/01/19 06:21:16;;;;;;;15.35;4.28;;;;;;;8.76;82.11;102308.97;7397948;19;20027;-69
2022/01/19 06:23:43;;;;;;;17.50;5.95;;;;;;;8.79;82.89;102298.25;7393206;19;20082;-66
2022/01/19 06:26:10;;;;;;;16.48;3.85;;;;;;;8.82;83.64;102284.94;7393155;19;20015;-68
2022/01/19 06:28:37;;;;;;;13.20;4.47;;;;;;;8.90;86.72;102278.22;7395227;19;20015;-67
2022/01/19 06:31:06;;;;;;;11.60;4.85;;;;;;;8.92;86.55;102270.25;7395472;19;20080;-67
2022/01/19 06:33:33;;;;;;;26.48;8.77;;;;;;;8.85;83.41;102261.94;7395189;19;20528;-67
2022/01/19 06:36:00;;;;;;;19.30;4.72;;;;;;;8.85;84.43;102256.69;7393148;19;20487;-69
2022/01/19 06:38:27;;;;;;;7.20;2.80;;;;;;;8.84;83.22;102257.63;7391452;19;20007;-68
2022/01/19 06:40:54;;;;;;;16.77;6.95;;;;;;;8.85;82.48;102261.94;7392240;19;20015;-66
2022/01/19 06:43:22;;;;;;;19.80;6.80;;;;;;;8.82;82.98;102240.34;7396490;19;20471;-67
2022/01/19 06:48:35;;;;;;;12.98;4.95;;;;;;;8.77;82.42;102224.91;7394135;19;20205;-67
2022/01/19 06:51:03;;;;;;;10.55;2.35;;;;;;;8.73;81.36;102231.31;7392274;19;20044;-67
2022/01/19 06:53:30;;;;;;;10.23;3.03;;;;;;;8.75;81.10;102239.91;7391551;19;20012;-67
2022/01/19 06:56:12;;;;;;;14.07;3.17;;;;;;;8.78;81.53;102254.63;7392261;19;20025;-66
2022/01/19 06:59:14;;;;;;;10.93;2.83;;;;;;;8.80;81.50;102257.97;7391449;19;20003;-66
2022/01/19 07:01:45;;;;;;;10.27;2.97;;;;;;;8.80;81.45;102253.56;7390416;19;20022;-69
2022/01/19 07:04:21;;;;;;;11.52;3.47;;;;;;;8.81;81.54;102250.00;7391450;19;20040;-68
2022/01/19 07:06:53;;;;;;;13.02;2.78;;;;;;;8.83;81.40;102234.16;7396287;19;20345;-68
2022/01/19 07:09:20;;;;;;;10.88;3.80;;;;;;;8.85;81.46;102230.47;7391965;19;20006;-68
2022/01/19 07:11:47;;;;;;;10.88;3.92;;;;;;;8.87;82.32;102238.22;7394649;19;20025;-68
2022/01/19 07:14:17;;;;;;;9.30;2.60;;;;;;;8.86;81.55;102240.00;7391496;19;20014;-67
2022/01/19 07:16:45;;;;;;;11.05;3.13;;;;;;;8.90;81.24;102235.38;7390167;19;20093;-68
2022/01/19 07:19:13;;;;;;;19.08;5.90;;;;;;;8.92;82.37;102225.63;7390395;19;20315;-66
2022/01/19 07:21:42;;;;;;;14.27;5.60;;;;;;;8.94;83.74;102229.81;7393865;19;20089;-69
2022/01/19 07:24:14;;;;;;;11.68;4.30;;;;;;;8.89;82.68;102212.69;7393922;19;20018;-67
2022/01/19 07:26:44;;;;;;;18.07;7.07;;;;;;;8.90;83.60;102204.72;7391818;19;20014;-68
2022/01/19 07:29:13;;;;;;;13.80;4.90;;;;;;;8.89;84.12;102205.66;7393726;19;20282;-68
2022/01/19 07:31:41;;;;;;;19.30;4.55;;;;;;;8.92;83.73;102212.50;7389558;19;20006;-66
2022/01/19 07:34:08;;;;;;;14.77;4.40;;;;;;;8.88;83.21;102219.75;7390369;19;20170;-68
2022/01/19 07:36:36;;;;;;;17.25;6.80;;;;;;;8.86;83.64;102224.28;7391084;19;20094;-68
2022/01/19 07:39:04;;;;;;;14.32;4.30;;;;;;;8.85;83.79;102219.97;7392921;19;20006;-67
2022/01/19 07:41:31;;;;;;;16.58;4.90;;;;;;;8.81;83.20;102215.88;7390735;19;20002;-67
2022/01/19 07:43:58;;;;;;;9.05;3.15;;;;;;;8.80;83.65;102222.06;7390998;19;20062;-66
2022/01/19 07:46:25;;;;;;;10.00;3.47;;;;;;;8.81;83.10;102233.41;7391056;19;20007;-67
2022/01/19 07:48:51;;;;;;;10.48;2.65;;;;;;;8.80;82.76;102237.81;7389847;19;20046;-68
2022/01/19 07:51:22;;;;;;;11.18;3.00;;;;;;;8.81;81.66;102230.78;7393868;19;20011;-67
2022/01/19 07:53:49;;;;;;;11.50;3.20;;;;;;;8.82;81.52;102224.59;7390699;19;20011;-66
2022/01/19 07:56:16;;;;;;;19.08;6.35;;;;;;;8.83;82.37;102218.41;7392502;19;20316;-67
2022/01/19 07:58:43;;;;;;;11.43;3.05;;;;;;;8.82;82.86;102221.97;7391519;19;20441;-67
2022/01/19 08:01:10;;;;;;;13.82;4.53;;;;;;;8.80;82.36;102214.19;7389799;19;20015;-68
2022/01/19 08:03:37;;;;;;;12.45;5.22;;;;;;;8.81;83.86;102205.38;7391581;19;20078;-67
2022/01/19 08:06:14;;;;;;;14.35;4.32;;;;;;;8.79;83.78;102209.03;7390089;19;20660;-68
2022/01/19 08:08:59;;;;;;;12.80;3.25;;;;;;;8.77;82.74;102203.91;7385723;19;20018;-68
2022/01/19 08:11:41;;;;;;;;;;;;;;;;;;;;;
2022/01/19 08:14:13;;;;;;;;;;;;;;;8.78;82.35;102204.75;7390277;19;20027;-67
2022/01/19 08:16:43;;;;;;;17.83;4.15;;;;;;;8.76;83.12;102196.16;7390130;19;19914;-67
2022/01/19 08:19:10;;;;;;;16.70;3.78;;;;;;;8.75;82.48;102220.69;7390892;19;20094;-68
2022/01/19 08:21:37;;;;;;;10.35;3.42;;;;;;;8.72;81.36;102227.03;7390876;19;20027;-68
2022/01/19 08:24:05;;;;;;;12.93;4.05;;;;;;;8.73;81.30;102231.31;7388702;19;20019;-68
2022/01/19 08:26:32;;;;;;;14.02;4.00;;;;;;;8.71;81.93;102216.63;7392031;19;20105;-71
2022/01/19 08:28:59;;;;;;;14.23;4.32;;;;;;;8.73;82.03;102227.84;7392391;19;20046;-66
2022/01/19 08:31:25;;;;;;;19.40;7.32;;;;;;;8.73;82.10;102220.00;7388639;19;20429;-67
2022/01/19 08:33:52;;;;;;;14.63;5.70;;;;;;;8.71;82.69;102211.38;7387661;19;20401;-67
2022/01/19 08:36:21;;;;;;;14.52;4.90;;;;;;;8.64;81.76;102210.94;7391829;19;20021;-67
2022/01/19 08:38:48;;;;;;;13.73;4.97;;;;;;;8.63;82.75;102214.53;7390628;19;20011;-67
2022/01/19 08:41:15;;;;;;;16.63;7.15;;;;;;;8.65;83.32;102210.00;7388604;19;20015;-67
2022/01/19 08:43:42;;;;;;;13.43;4.45;;;;;;;8.68;83.80;102220.31;7391137;19;20552;-67
2022/01/19 08:46:09;;;;;;;20.10;5.68;;;;;;;8.68;83.32;102217.69;7390573;19;20590;-67
2022/01/19 08:48:36;;;;;;;16.42;5.10;;;;;;;8.71;83.28;102219.25;7388735;19;20369;-66
2022/01/19 08:51:04;;;;;;;17.00;6.07;;;;;;;8.70;83.54;102215.78;7390142;19;20494;-68
2022/01/19 08:53:32;;;;;;;12.38;4.80;;;;;;;8.71;82.47;102227.97;7371586;19;20375;-67
2022/01/19 08:55:59;;;;;;;13.15;4.18;;;;;;;8.74;82.82;102227.72;7387377;19;20452;-66
2022/01/19 08:58:26;;;;;;;16.05;4.90;;;;;;;8.95;89.52;102221.00;7392894;19;20006;-69
2022/01/19 09:00:53;;;;;;;18.23;8.18;;;;;;;8.96;85.72;102217.44;7387599;19;20082;-69
2022/01/19 09:03:20;;;;;;;14.65;5.22;;;;;;;8.98;83.54;102222.56;7391374;19;20091;-66
2022/01/19 09:05:48;;;;;;;22.45;9.88;;;;;;;8.99;84.06;102225.06;7391802;19;20017;-67
2022/01/19 09:08:14;;;;;;;23.40;10.40;;;;;;;9.02;84.48;102224.88;7392268;19;20078;-68
2022/01/19 09:10:41;;;;;;;33.10;13.93;;;;;;;8.98;84.20;102207.66;7391531;19;20021;-68
2022/01/19 09:13:09;;;;;;;15.57;6.57;;;;;;;9.04;85.15;102218.69;7389590;19;20460;-69
2022/01/19 09:15:37;;;;;;;14.15;5.65;;;;;;;9.04;84.49;102223.94;7387019;19;20007;-68
2022/01/19 09:18:17;;;;;;;20.88;5.07;;;;;;;9.07;82.51;102215.84;7391455;19;20022;-68
2022/01/19 09:20:53;;;;;;;16.50;5.72;;;;;;;9.09;81.99;102209.53;7389366;19;20010;-67
2022/01/19 09:23:23;;;;;;;16.08;5.97;;;;;;;9.13;82.63;102211.00;7396350;19;20017;-67
2022/01/19 09:25:58;;;;;;;18.92;7.90;;;;;;;9.12;81.49;102204.06;7399173;19;20003;-68
2022/01/19 09:28:35;;;;;;;15.45;6.50;;;;;;;9.13;81.32;102204.91;7396034;19;20013;-68
2022/01/19 09:31:23;;;;;;;23.13;10.20;;;;;;;9.16;81.77;102199.41;7398710;19;20010;-68
2022/01/19 09:34:08;;;;;;;16.88;7.10;;;;;;;9.17;82.25;102209.81;7396148;19;20015;-67
2022/01/19 09:36:46;;;;;;;14.63;6.15;;;;;;;9.19;82.52;102204.47;7395836;19;20015;-68
2022/01/19 09:39:20;;;;;;;15.82;5.45;;;;;;;9.16;81.41;102197.63;7396385;19;20011;-68
2022/01/19 09:41:49;;;;;;;19.15;5.20;;;;;;;9.11;80.47;102207.63;7396006;19;20034;-69
2022/01/19 09:44:20;;;;;;;16.65;6.57;;;;;;;9.09;81.15;102191.16;7398097;19;20057;-68
2022/01/19 09:46:48;;;;;;;22.02;10.38;;;;;;;9.15;82.40;102184.59;7395313;19;20007;-66
2022/01/19 09:49:17;;;;;;;18.67;8.07;;;;;;;9.21;83.04;102190.25;7397764;19;20117;-68
2022/01/19 09:51:50;;;;;;;19.20;6.40;;;;;;;9.21;82.11;102190.25;7397361;19;20475;-67
2022/01/19 09:54:24;;;;;;;13.52;6.18;;;;;;;9.23;83.15;102193.63;7391753;19;20345;-67
2022/01/19 09:56:54;;;;;;;20.08;7.65;;;;;;;9.28;84.03;102191.50;7394257;19;20741;-69
2022/01/19 09:59:25;;;;;;;17.73;8.70;;;;;;;9.32;84.75;102194.75;7394850;19;20472;-68
2022/01/19 10:02:09;;;;;;;13.02;4.93;;;;;;;9.37;83.84;102190.00;7395556;19;20686;-68
2022/01/19 10:04:42;;;;;;;16.40;5.63;;;;;;;9.34;82.21;102193.72;7393012;19;20498;-69
2022/01/19 10:07:24;;;;;;;12.80;5.35;;;;;;;9.29;81.97;102201.06;7396160;19;20078;-67
2022/01/19 10:09:57;;;;;;;15.10;5.15;;;;;;;9.25;81.91;102191.72;7392046;19;20007;-68
2022/01/19 10:18:17;;;;;;;17.48;6.30;;;;;;;9.17;83.56;102174.84;7393037;19;20015;-69
2022/01/19 10:21:02;;;;;;;40.88;13.82;;;;;;;9.19;83.95;102175.59;7392132;19;20060;-68
2022/01/19 10:23:36;;;;;;;18.38;7.63;;;;;;;9.19;83.97;102192.19;7394240;19;20044;-67
2022/01/19 10:26:13;;;;;;;15.50;5.70;;;;;;;9.17;83.73;102175.69;7394673;19;20006;-68
2022/01/19 10:29:05;;;;;;;29.10;9.30;;;;;;;9.21;84.45;102173.66;7395995;19;20019;-67
2022/01/19 10:31:36;;;;;;;20.08;7.55;;;;;;;9.23;83.51;102172.63;7396311;19;20011;-67
2022/01/19 10:34:22;;;;;;;21.83;8.43;;;;;;;9.25;83.13;102188.25;7392054;19;20015;-68
2022/01/19 10:36:56;;;;;;;16.55;6.28;;;;;;;9.27;83.31;102192.47;7392352;19;20002;-70
2022/01/19 10:39:41;;;;;;;16.08;6.03;;;;;;;9.31;82.98;102190.44;7389353;19;20011;-69
2022/01/19 10:42:15;;;;;;;15.02;6.22;;;;;;;9.36;83.12;102185.69;7391753;19;20463;-67
2022/01/19 10:44:45;;;;;;;13.13;6.03;;;;;;;9.40;83.10;102182.72;7393429;19;20041;-67
2022/01/19 10:47:44;;;;;;;16.40;7.28;;;;;;;9.47;82.21;102177.03;7389807;19;20070;-69
2022/01/19 10:50:14;;;;;;;13.20;6.10;;;;;;;9.52;82.75;102183.63;7391422;19;20363;-67
2022/01/19 10:52:44;;;;;;;13.93;5.95;;;;;;;9.60;82.44;102180.47;7388849;19;20011;-67
2022/01/19 10:55:20;;;;;;;16.08;5.95;;;;;;;9.69;82.45;102179.78;7390218;19;20015;-68
2022/01/19 10:57:50;;;;;;;10.50;5.30;;;;;;;9.76;81.76;102180.97;7390413;19;20011;-67
2022/01/19 11:00:23;;;;;;;14.35;4.97;;;;;;;9.85;81.20;102189.00;7387331;19;20035;-66
2022/01/19 11:02:53;;;;;;;14.50;6.25;;;;;;;9.92;81.40;102178.03;7391555;19;20042;-68
2022/01/19 11:05:39;;;;;;;10.63;3.78;;;;;;;10.03;83.58;102175.44;7391549;19;20015;-67
2022/01/19 11:08:06;;;;;;;12.98;4.60;;;;;;;10.09;83.19;102175.00;7393504;19;20038;-67
2022/01/19 11:10:33;;;;;;;15.63;4.95;;;;;;;10.11;81.76;102171.28;7392430;19;20424;-67
2022/01/19 11:13:01;;;;;;;12.43;6.72;;;;;;;10.17;81.27;102172.63;7390677;19;20066;-67
2022/01/19 11:15:32;;;;;;;11.35;6.07;;;;;;;10.19;81.63;102168.94;7390026;19;20306;-66
2022/01/19 11:18:04;;;;;;;9.77;4.78;;;;;;;10.23;80.84;102170.38;7392870;19;20098;-67
2022/01/19 11:20:41;;;;;;;12.00;4.18;;;;;;;10.28;80.63;102164.78;7388197;19;20010;-65
2022/01/19 11:23:34;;;;;;;12.30;5.10;;;;;;;10.32;80.50;102158.31;7388213;19;20011;-67
2022/01/19 11:26:12;;;;;;;15.88;4.85;;;;;;;10.37;80.22;102144.81;7393881;19;20039;-68
2022/01/19 11:28:46;;;;;;;12.77;4.30;;;;;;;10.38;79.97;102130.69;7390275;19;20006;-67
2022/01/19 11:31:19;;;;;;;9.50;3.95;;;;;;;10.39;79.43;102133.22;7387762;19;20526;-69
2022/01/19 11:33:52;;;;;;;8.77;4.00;;;;;;;10.42;80.32;102132.97;7389563;19;20015;-67
2022/01/19 11:36:21;;;;;;;11.57;4.68;;;;;;;10.42;79.94;102121.59;7388355;19;20091;-68
2022/01/19 11:38:52;;;;;;;11.00;4.82;;;;;;;10.38;80.00;102104.38;7388624;19;20030;-67
2022/01/19 11:41:20;;;;;;;14.07;5.45;;;;;;;10.35;80.69;102102.00;7390895;19;20016;-67
2022/01/19 11:44:00;;;;;;;11.50;4.03;;;;;;;10.39;81.12;102085.84;7388224;19;20070;-67
2022/01/19 11:46:32;;;;;;;11.75;3.35;;;;;;;10.42;81.27;102077.72;7389387;19;20002;-67
2022/01/19 11:49:03;;;;;;;11.48;3.67;;;;;;;10.42;81.32;102084.75;7388602;19;20059;-67
2022/01/19 11:51:39;;;;;;;12.85;3.20;;;;;;;10.47;81.89;102079.97;7390874;19;20027;-67
2022/01/19 11:54:18;;;;;;;10.55;4.63;;;;;;;10.49;81.89;102078.91;7386709;19;20046;-65
2022/01/19 11:56:58;;;;;;;8.68;3.40;;;;;;;10.53;82.19;102077.72;7386366;19;20018;-67
2022/01/19 11:59:31;;;;;;;8.57;3.40;;;;;;;10.53;82.36;102080.34;7393504;19;20082;-67
2022/01/19 12:02:19;;;;;;;9.27;3.33;;;;;;;10.55;82.29;102086.34;7390027;19;20018;-67
2022/01/19 12:05:11;;;;;;;10.13;3.42;;;;;;;10.59;82.72;102074.59;7388889;19;20363;-65
2022/01/19 12:07:43;;;;;;;10.20;3.35;;;;;;;10.63;82.91;102065.50;7393644;19;20031;-66
2022/01/19 12:10:14;;;;;;;8.20;3.42;;;;;;;10.69;83.12;102065.00;7387546;19;20006;-65
2022/01/19 12:12:55;;;;;;;8.13;3.10;;;;;;;10.73;83.05;102060.31;7392369;19;20017;-67
2022/01/19 12:15:46;;;;;;;6.22;2.78;;;;;;;10.76;82.16;102067.16;7389526;19;20041;-67
2022/01/19 12:18:37;;;;;;;6.05;2.63;;;;;;;10.78;82.08;102052.91;7391644;19;20039;-66
2022/01/19 12:21:06;;;;;;;10.30;3.55;;;;;;;10.80;82.21;102052.78;7386832;19;20046;-66
2022/01/19 12:23:35;;;;;;;15.10;8.30;;;;;;;10.78;82.80;102044.16;7390635;19;20468;-66
2022/01/19 12:26:09;;;;;;;13.23;5.65;;;;;;;10.82;83.01;102046.41;7386821;19;20038;-66
2022/01/19 12:28:54;;;;;;;13.52;4.72;;;;;;;10.85;83.10;102047.97;7388468;19;20687;-67
2022/01/19 12:31:24;;;;;;;11.05;4.53;;;;;;;10.82;82.17;102045.59;7386604;19;20030;-67
2022/01/19 12:34:04;;;;;;;8.07;3.75;;;;;;;10.83;82.50;102027.03;7389187;19;20011;-68
2022/01/19 12:36:56;;;;;;;11.40;3.63;;;;;;;10.81;82.41;102028.97;7384826;19;20486;-67
2022/01/19 12:39:26;;;;;;;13.75;4.75;;;;;;;10.83;82.59;102034.94;7385643;19;20054;-66
2022/01/19 12:41:59;;;;;;;8.43;3.72;;;;;;;10.86;82.74;102034.69;7390927;19;20015;-67
2022/01/19 12:44:35;;;;;;;15.05;5.63;;;;;;;10.86;81.88;102045.22;7391337;19;20015;-66
2022/01/19 12:47:05;;;;;;;17.00;6.68;;;;;;;10.90;82.21;102037.91;7390028;19;20496;-67
2022/01/19 12:49:32;;;;;;;16.25;6.38;;;;;;;10.94;82.60;102026.16;7387291;19;20007;-66
2022/01/19 12:52:00;;;;;;;12.63;5.30;;;;;;;10.96;83.26;102019.81;7391513;19;20393;-67
2022/01/19 12:54:30;;;;;;;10.52;3.92;;;;;;;10.98;82.93;102043.38;7388989;19;20456;-67
2022/01/19 12:57:02;;;;;;;10.65;4.93;;;;;;;10.97;82.91;102026.72;7389751;19;20370;-67
2022/01/19 12:59:32;;;;;;;12.98;4.70;;;;;;;10.96;82.99;102017.19;7393350;19;20371;-66
2022/01/19 13:02:00;;;;;;;10.15;3.97;;;;;;;11.01;83.25;102027.34;7394438;19;20015;-67
2022/01/19 13:04:34;;;;;;;9.13;4.25;;;;;;;10.99;82.79;102031.88;7396334;19;20018;-68
2022/01/19 13:07:17;;;;;;;13.43;4.70;;;;;;;11.00;82.85;102038.81;7392022;19;20007;-67
2022/01/19 13:10:07;;;;;;;10.30;3.40;;;;;;;10.99;82.55;102040.63;7395301;19;20186;-69
2022/01/19 13:12:42;;;;;;;10.27;4.03;;;;;;;10.96;82.76;102045.31;7395511;19;20041;-66
2022/01/19 13:15:09;;;;;;;11.57;4.85;;;;;;;10.94;83.27;102065.66;7391535;19;20040;-67
2022/01/19 13:17:41;;;;;;;10.82;4.18;;;;;;;10.95;84.46;102062.06;7394423;19;20021;-67
2022/01/19 13:20:11;;;;;;;15.43;7.07;;;;;;;10.92;84.39;102054.44;7394872;19;20038;-68
2022/01/19 13:22:49;;;;;;;9.32;4.65;;;;;;;10.89;84.79;102046.75;7392422;19;20524;-67
2022/01/19 13:25:25;;;;;;;11.25;4.53;;;;;;;10.86;85.34;102053.13;7393302;19;20018;-67
2022/01/19 13:28:00;;;;;;;9.27;3.85;;;;;;;10.83;85.45;102052.53;7392272;19;20038;-68
2022/01/19 13:30:33;;;;;;;12.15;5.28;;;;;;;10.77;86.08;102055.66;7393639;19;20010;-69
2022/01/19 13:33:11;;;;;;;11.65;5.28;;;;;;;10.72;86.76;102066.53;7393329;19;20003;-66